createdAt,value
2019-05-17T00:01:47.073Z,37.41
2019-05-17T00:04:13.628Z,37.44
2019-05-17T00:06:40.269Z,37.44
2019-05-17T00:09:07.060Z,37.47
2019-05-17T00:11:33.580Z,37.46
2019-05-17T00:14:00.223Z,37.48
2019-05-17T00:16:26.933Z,37.42
2019-05-17T00:18:53.544Z,37.57
2019-05-17T00:21:20.253Z,37.50
2019-05-17T00:23:47.092Z,37.53
2019-05-17T00:26:13.589Z,37.43
2019-05-17T00:28:40.242Z,37.49
2019-05-17T00:31:06.883Z,37.52
2019-05-17T00:33:33.524Z,37.60
2019-05-17T00:36:00.265Z,37.56
2019-05-17T00:38:27.439Z,37.50
2019-05-17T00:40:53.571Z,37.58
2019-05-17T00:43:20.218Z,37.48
2019-05-17T00:48:13.541Z,37.50
2019-05-17T00:50:40.231Z,37.49
2019-05-17T00:53:07.428Z,37.47
2019-05-17T00:55:33.514Z,37.58
2019-05-17T00:58:00.153Z,37.55
2019-05-17T01:00:27.894Z,37.51
2019-05-17T01:02:53.504Z,37.52
2019-05-17T01:05:20.150Z,37.50
2019-05-17T01:07:47.251Z,37.61
2019-05-17T01:10:13.521Z,37.56
2019-05-17T01:12:40.162Z,37.57
2019-05-17T01:15:07.468Z,37.55
2019-05-17T01:17:33.487Z,37.61
2019-05-17T01:20:00.193Z,37.62
2019-05-17T01:22:26.830Z,37.55
2019-05-17T01:24:56.994Z,37.59
2019-05-17T01:27:22.503Z,37.71
2019-05-17T01:29:49.145Z,37.55
2019-05-17T01:32:17.238Z,37.69
2019-05-17T01:34:42.436Z,37.59
2019-05-17T01:37:09.093Z,37.67
2019-05-17T01:39:37.530Z,37.63
2019-05-17T01:44:29.015Z,37.48
2019-05-17T01:46:56.746Z,37.53
2019-05-17T01:49:22.342Z,37.55
2019-05-17T01:51:48.992Z,37.58
2019-05-17T01:54:17.551Z,37.57
2019-05-17T01:56:42.336Z,37.65
2019-05-17T01:59:08.966Z,37.61
2019-05-17T02:01:38.920Z,37.57
2019-05-17T02:04:06.647Z,37.66
2019-05-17T02:06:32.240Z,37.78
2019-05-17T02:08:58.895Z,37.75
2019-05-17T02:11:26.994Z,37.79
2019-05-17T02:13:52.231Z,37.73
2019-05-17T02:16:18.872Z,37.81
2019-05-17T02:18:46.628Z,37.77
2019-05-17T02:21:12.197Z,37.71
2019-05-17T02:23:38.873Z,37.76
2019-05-17T02:26:06.685Z,37.73
2019-05-17T02:28:32.255Z,37.84
2019-05-17T02:30:58.864Z,37.83
2019-05-17T02:33:25.544Z,37.76
2019-05-17T02:35:53.653Z,37.80
2019-05-17T02:40:45.491Z,37.86
2019-05-17T02:43:13.239Z,37.80
2019-05-17T02:45:38.817Z,37.89
2019-05-17T02:48:05.461Z,37.79
2019-05-17T02:50:33.070Z,37.82
2019-05-17T02:52:58.777Z,37.88
2019-05-17T02:55:25.425Z,38.02
2019-05-17T02:57:52.970Z,37.93
2019-05-17T03:00:18.723Z,37.89
2019-05-17T03:02:45.413Z,37.89
2019-05-17T03:05:12.817Z,37.79
2019-05-17T03:07:38.726Z,37.95
2019-05-17T03:10:18.275Z,37.88
2019-05-17T03:12:32.863Z,37.74
2019-05-17T03:14:58.665Z,37.78
2019-05-17T03:17:25.320Z,38.00
2019-05-17T03:19:52.934Z,38.05
2019-05-17T03:22:18.634Z,38.17
2019-05-17T03:24:45.289Z,38.21
2019-05-17T03:27:13.533Z,38.20
2019-05-17T03:29:38.575Z,38.33
2019-05-17T03:32:08.781Z,38.19
2019-05-17T03:34:36.798Z,38.25
2019-05-17T03:36:58.531Z,38.08
2019-05-17T03:39:25.156Z,38.00
2019-05-17T03:41:53.522Z,38.01
2019-05-17T03:44:18.450Z,37.94
2019-05-17T03:46:45.085Z,37.89
2019-05-17T03:49:13.097Z,37.77
2019-05-17T03:54:05.021Z,37.11
2019-05-17T03:56:33.018Z,36.87
2019-05-17T03:58:58.340Z,36.80
2019-05-17T04:01:24.989Z,36.70
2019-05-17T04:03:52.920Z,36.47
2019-05-17T04:06:18.381Z,36.49
2019-05-17T04:08:45.020Z,36.55
2019-05-17T04:11:22.184Z,36.42
2019-05-17T04:16:08.899Z,36.25
2019-05-17T04:18:33.670Z,36.14
2019-05-17T04:20:58.258Z,35.86
2019-05-17T04:23:24.917Z,35.92
2019-05-17T04:25:53.014Z,36.08
2019-05-17T04:28:18.215Z,36.04
2019-05-17T04:30:44.850Z,36.17
2019-05-17T04:33:12.866Z,36.09
2019-05-17T04:35:38.150Z,36.00
2019-05-17T04:38:04.800Z,36.05
2019-05-17T04:40:34.103Z,36.04
2019-05-17T04:42:58.082Z,36.00
2019-05-17T04:45:24.713Z,35.94
2019-05-17T04:47:52.908Z,35.85
2019-05-17T04:50:17.996Z,35.77
2019-05-17T04:52:44.642Z,35.79
2019-05-17T04:55:13.237Z,35.71
2019-05-17T04:57:37.944Z,35.70
2019-05-17T05:00:04.603Z,35.61
2019-05-17T05:02:33.099Z,35.56
2019-05-17T05:04:57.882Z,35.51
2019-05-17T05:07:24.526Z,35.38
2019-05-17T05:09:52.307Z,35.34
2019-05-17T05:12:17.824Z,35.04
2019-05-17T05:14:44.474Z,35.09
2019-05-17T05:17:12.757Z,35.26
2019-05-17T05:19:37.766Z,35.25
2019-05-17T05:22:04.935Z,35.15
2019-05-17T05:24:31.547Z,35.12
2019-05-17T05:26:57.704Z,35.00
2019-05-17T05:29:24.358Z,34.99
2019-05-17T05:31:51.765Z,34.91
2019-05-17T05:34:17.715Z,34.57
2019-05-17T05:36:44.377Z,34.75
2019-05-17T05:39:11.658Z,34.52
2019-05-17T05:41:37.680Z,34.54
2019-05-17T05:44:04.329Z,34.73
2019-05-17T05:46:31.793Z,34.43
2019-05-17T05:48:57.713Z,34.65
2019-05-17T05:51:24.369Z,34.65
2019-05-17T05:53:52.172Z,34.66
2019-05-17T05:56:17.653Z,34.54
2019-05-17T05:58:44.301Z,34.60
2019-05-17T06:01:12.715Z,34.54
2019-05-17T06:03:37.592Z,34.49
2019-05-17T06:06:04.242Z,34.54
2019-05-17T06:08:32.221Z,34.55
2019-05-17T06:10:57.508Z,34.59
2019-05-17T06:13:24.162Z,34.43
2019-05-17T06:15:51.809Z,34.63
2019-05-17T06:18:17.439Z,34.41
2019-05-17T06:20:44.095Z,34.44
2019-05-17T06:23:12.264Z,34.08
2019-05-17T06:28:04.030Z,34.46
2019-05-17T06:30:32.393Z,34.38
2019-05-17T06:32:57.364Z,34.17
2019-05-17T06:35:24.050Z,34.27
2019-05-17T06:37:50.699Z,33.87
2019-05-17T06:40:17.345Z,34.35
2019-05-17T06:42:45.479Z,34.23
2019-05-17T06:45:12.462Z,34.23
2019-05-17T06:50:03.945Z,34.08
2019-05-17T06:52:32.655Z,33.87
2019-05-17T06:54:57.244Z,34.14
2019-05-17T06:57:23.877Z,33.87
2019-05-17T06:59:50.523Z,33.89
2019-05-17T07:02:19.648Z,33.81
2019-05-17T07:04:43.836Z,33.72
2019-05-17T07:07:10.919Z,33.75
2019-05-17T07:09:37.140Z,33.53
2019-05-17T07:12:03.798Z,33.69
2019-05-17T07:14:30.435Z,33.49
2019-05-17T07:16:59.461Z,33.37
2019-05-17T07:21:50.424Z,33.17
2019-05-17T07:24:19.438Z,32.97
2019-05-17T07:26:43.769Z,32.95
2019-05-17T07:29:10.411Z,32.80
2019-05-17T07:31:37.056Z,32.79
2019-05-17T07:34:03.780Z,32.51
2019-05-17T07:36:30.742Z,32.75
2019-05-17T07:38:57.078Z,32.99
2019-05-17T07:41:25.902Z,32.71
2019-05-17T07:43:50.420Z,32.77
2019-05-17T07:46:17.069Z,33.01
2019-05-17T07:48:43.728Z,32.90
2019-05-17T07:51:10.377Z,33.01
2019-05-17T07:53:37.026Z,33.26
2019-05-17T07:56:03.678Z,32.87
2019-05-17T07:58:30.410Z,33.06
2019-05-17T08:00:58.258Z,32.68
2019-05-17T08:03:25.143Z,32.73
2019-05-17T08:05:51.630Z,32.77
2019-05-17T08:08:20.694Z,32.70
2019-05-17T08:10:44.925Z,32.74
2019-05-17T08:13:25.816Z,32.71
2019-05-17T08:15:39.801Z,32.71
2019-05-17T08:18:04.878Z,32.62
2019-05-17T08:20:31.535Z,32.63
2019-05-17T08:22:59.561Z,32.57
2019-05-17T08:25:24.847Z,33.05
2019-05-17T08:27:51.480Z,32.88
2019-05-17T08:30:20.101Z,32.88
2019-05-17T08:32:44.768Z,32.93
2019-05-17T08:35:11.606Z,32.75
2019-05-17T08:40:04.929Z,32.92
2019-05-17T08:42:31.577Z,32.83
2019-05-17T08:45:00.269Z,32.87
2019-05-17T08:47:24.860Z,33.01
2019-05-17T08:49:51.504Z,32.94
2019-05-17T08:52:20.050Z,32.85
2019-05-17T08:54:44.796Z,33.02
2019-05-17T08:57:11.558Z,32.87
2019-05-17T09:02:04.921Z,33.14
2019-05-17T09:04:31.566Z,32.89
2019-05-17T09:07:00.057Z,32.96
2019-05-17T09:09:24.879Z,32.74
2019-05-17T09:11:51.528Z,32.76
2019-05-17T09:14:18.169Z,32.78
2019-05-17T09:16:44.834Z,32.84
2019-05-17T09:19:11.479Z,33.03
2019-05-17T09:21:39.699Z,32.88
2019-05-17T09:24:04.776Z,32.81
2019-05-17T09:26:31.434Z,32.97
2019-05-17T09:29:00.863Z,32.77
2019-05-17T09:31:24.805Z,32.79
2019-05-17T09:33:51.455Z,32.58
2019-05-17T09:36:20.309Z,32.79
2019-05-17T09:38:44.796Z,32.89
2019-05-17T09:41:11.431Z,33.07
2019-05-17T09:43:40.094Z,33.32
2019-05-17T09:46:04.727Z,33.27
2019-05-17T09:48:31.382Z,33.09
2019-05-17T09:50:59.946Z,33.24
2019-05-17T09:53:24.700Z,33.20
2019-05-17T09:58:21.419Z,33.25
2019-05-17T10:00:44.637Z,33.43
2019-05-17T10:03:11.317Z,33.63
2019-05-17T10:05:40.311Z,33.73
2019-05-17T10:08:04.625Z,33.89
2019-05-17T10:10:31.283Z,33.96
2019-05-17T10:13:00.118Z,33.73
2019-05-17T10:15:24.645Z,33.84
2019-05-17T10:17:51.291Z,34.04
2019-05-17T10:20:19.910Z,34.06
2019-05-17T10:22:44.588Z,33.66
2019-05-17T10:25:11.231Z,33.76
2019-05-17T10:27:40.410Z,33.85
2019-05-17T10:30:04.547Z,34.06
2019-05-17T10:32:31.214Z,34.14
2019-05-17T10:35:00.455Z,34.27
2019-05-17T10:37:26.789Z,34.30
2019-05-17T10:39:53.440Z,34.35
2019-05-17T10:42:20.949Z,34.23
2019-05-17T10:44:47.937Z,34.50
2019-05-17T10:47:13.387Z,34.15
2019-05-17T10:49:40.251Z,34.40
2019-05-17T10:52:06.682Z,34.51
2019-05-17T10:54:33.360Z,34.44
2019-05-17T10:56:59.998Z,34.76
2019-05-17T10:59:26.640Z,34.39
2019-05-17T11:01:53.387Z,34.85
2019-05-17T11:04:19.971Z,34.81
2019-05-17T11:06:46.630Z,34.88
2019-05-17T11:09:13.281Z,34.85
2019-05-17T11:11:39.930Z,34.82
2019-05-17T11:16:33.265Z,35.18
2019-05-17T11:18:59.909Z,34.96
2019-05-17T11:21:26.557Z,35.13
2019-05-17T11:23:53.210Z,34.59
2019-05-17T11:26:19.860Z,34.84
2019-05-17T11:28:46.590Z,34.72
2019-05-17T11:31:13.246Z,34.81
2019-05-17T11:33:39.894Z,34.66
2019-05-17T11:36:06.549Z,34.95
2019-05-17T11:38:33.239Z,34.77
2019-05-17T11:40:59.891Z,34.76
2019-05-17T11:43:26.770Z,34.59
2019-05-17T11:45:53.421Z,34.86
2019-05-17T11:48:20.066Z,34.88
2019-05-17T11:50:46.759Z,34.77
2019-05-17T11:53:13.417Z,34.96
2019-05-17T11:55:40.105Z,34.95
2019-05-17T11:58:06.753Z,34.92
2019-05-17T12:00:33.441Z,34.99
2019-05-17T12:03:00.079Z,34.96
2019-05-17T12:05:26.743Z,34.97
2019-05-17T12:07:53.369Z,34.79
2019-05-17T12:10:20.019Z,35.05
2019-05-17T12:12:46.655Z,34.76
2019-05-17T12:15:13.315Z,35.05
2019-05-17T12:17:39.958Z,35.01
2019-05-17T12:20:06.602Z,35.06
2019-05-17T12:22:33.259Z,35.05
2019-05-17T12:24:59.911Z,34.97
2019-05-17T12:27:26.625Z,35.03
2019-05-17T12:29:53.294Z,34.79
2019-05-17T12:32:19.944Z,34.69
2019-05-17T12:34:46.595Z,34.83
2019-05-17T12:37:13.250Z,34.95
2019-05-17T12:39:39.929Z,35.10
2019-05-17T12:42:06.705Z,34.98
2019-05-17T12:46:59.990Z,35.21
2019-05-17T12:49:26.626Z,35.18
2019-05-17T12:51:53.309Z,35.22
2019-05-17T12:54:19.981Z,35.07
2019-05-17T12:56:46.613Z,35.36
2019-05-17T12:59:13.272Z,35.09
2019-05-17T13:01:39.970Z,35.17
2019-05-17T13:04:06.624Z,34.95
2019-05-17T13:06:33.271Z,35.15
2019-05-17T13:08:59.957Z,35.24
2019-05-17T13:11:26.619Z,35.20
2019-05-17T13:13:53.275Z,35.13
2019-05-17T13:16:19.948Z,35.20
2019-05-17T13:21:13.272Z,34.82
2019-05-17T13:23:39.924Z,34.80
2019-05-17T13:26:06.575Z,34.66
2019-05-17T13:28:33.280Z,34.58
2019-05-17T13:31:00.078Z,34.72
2019-05-17T13:33:29.154Z,34.75
2019-05-17T13:35:53.634Z,34.73
2019-05-17T13:38:20.502Z,34.67
2019-05-17T13:40:47.305Z,34.82
2019-05-17T13:43:14.099Z,34.79
2019-05-17T13:45:43.797Z,34.94
2019-05-17T13:48:07.651Z,35.06
2019-05-17T13:50:34.448Z,34.69
2019-05-17T13:55:28.079Z,35.20
2019-05-17T13:57:54.937Z,35.26
2019-05-17T14:00:21.775Z,35.16
2019-05-17T14:02:48.620Z,35.38
2019-05-17T14:05:15.676Z,35.13
2019-05-17T14:07:42.522Z,35.30
2019-05-17T14:10:24.480Z,35.57
2019-05-17T14:12:36.300Z,35.49
2019-05-17T14:15:03.138Z,35.92
2019-05-17T14:17:29.991Z,36.01
2019-05-17T14:19:56.781Z,36.09
2019-05-17T14:22:23.663Z,36.07
2019-05-17T14:24:50.505Z,36.11
2019-05-17T14:27:17.457Z,36.19
2019-05-17T14:29:44.306Z,36.19
2019-05-17T14:32:11.652Z,36.13
2019-05-17T14:34:38.265Z,36.40
2019-05-17T14:37:07.559Z,36.53
2019-05-17T14:39:31.979Z,36.69
2019-05-17T14:41:58.816Z,36.76
2019-05-17T14:44:25.775Z,36.97
2019-05-17T14:46:52.563Z,36.68
2019-05-17T14:49:19.393Z,37.01
2019-05-17T14:51:46.287Z,37.12
2019-05-17T14:54:13.235Z,37.11
2019-05-17T14:56:40.174Z,37.07
2019-05-17T14:59:06.960Z,37.19
2019-05-17T15:01:33.867Z,37.09
2019-05-17T15:04:00.707Z,37.15
2019-05-17T15:06:27.552Z,37.58
2019-05-17T15:08:55.806Z,37.58
2019-05-17T15:11:21.228Z,37.83
2019-05-17T15:16:14.912Z,37.96
2019-05-17T15:18:41.723Z,37.90
2019-05-17T15:21:08.710Z,37.98
2019-05-17T15:23:35.554Z,38.00
2019-05-17T15:26:02.402Z,38.02
2019-05-17T15:28:29.233Z,38.06
2019-05-17T15:30:56.073Z,38.06
2019-05-17T15:33:22.923Z,38.13
2019-05-17T15:35:49.725Z,38.24
2019-05-17T15:38:16.568Z,38.34
2019-05-17T15:40:43.454Z,38.32
2019-05-17T15:43:10.302Z,38.39
2019-05-17T15:45:37.133Z,38.36
2019-05-17T15:50:30.791Z,38.49
2019-05-17T15:52:57.670Z,38.40
2019-05-17T15:55:24.606Z,38.51
2019-05-17T15:57:51.458Z,38.57
2019-05-17T16:00:18.398Z,38.63
2019-05-17T16:02:45.337Z,38.70
2019-05-17T16:05:12.291Z,38.79
2019-05-17T16:07:39.228Z,38.83
2019-05-17T16:10:06.068Z,38.81
2019-05-17T16:12:32.954Z,38.86
2019-05-17T16:14:59.739Z,38.89
2019-05-17T16:17:26.599Z,38.89
2019-05-17T16:19:53.616Z,38.87
2019-05-17T16:22:20.488Z,38.97
2019-05-17T16:24:47.436Z,39.00
2019-05-17T16:27:14.283Z,38.96
2019-05-17T16:29:41.220Z,38.99
2019-05-17T16:32:08.023Z,38.94
2019-05-17T16:34:35.426Z,38.96
2019-05-17T16:37:02.223Z,38.93
2019-05-17T16:39:29.008Z,39.00
2019-05-17T16:41:55.819Z,38.94
2019-05-17T16:44:22.686Z,38.99
2019-05-17T16:46:49.634Z,39.05
2019-05-17T16:49:16.470Z,38.99
2019-05-17T16:51:43.289Z,38.99
2019-05-17T16:54:10.161Z,39.04
2019-05-17T16:56:36.996Z,38.92
2019-05-17T16:59:03.925Z,38.86
2019-05-17T17:01:30.788Z,38.94
2019-05-17T17:03:57.624Z,38.98
2019-05-17T17:06:24.477Z,38.98
2019-05-17T17:08:51.415Z,38.99
2019-05-17T17:11:18.263Z,38.97
2019-05-17T17:13:45.206Z,39.14
2019-05-17T17:16:12.037Z,39.04
2019-05-17T17:18:38.890Z,39.09
2019-05-17T17:21:05.712Z,39.12
2019-05-17T17:23:32.567Z,39.09
2019-05-17T17:25:59.419Z,39.20
2019-05-17T17:28:26.259Z,39.14
2019-05-17T17:30:53.085Z,39.14
2019-05-17T17:33:19.944Z,39.10
2019-05-17T17:35:46.777Z,39.26
2019-05-17T17:38:13.617Z,39.26
2019-05-17T17:40:40.261Z,39.25
2019-05-17T17:43:07.188Z,39.30
2019-05-17T17:45:34.045Z,39.29
2019-05-17T17:48:00.742Z,39.33
2019-05-17T17:50:27.542Z,39.23
2019-05-17T17:52:54.468Z,39.16
2019-05-17T17:55:21.186Z,39.30
2019-05-17T17:57:48.052Z,39.30
2019-05-17T18:00:14.898Z,39.27
2019-05-17T18:02:41.733Z,39.26
2019-05-17T18:07:35.133Z,39.16
2019-05-17T18:10:02.070Z,39.17
2019-05-17T18:12:28.906Z,39.21
2019-05-17T18:14:55.743Z,39.27
2019-05-17T18:17:22.470Z,39.25
2019-05-17T18:19:49.399Z,39.28
2019-05-17T18:22:16.274Z,39.35
2019-05-17T18:24:43.227Z,39.31
2019-05-17T18:27:10.034Z,39.36
2019-05-17T18:29:36.900Z,39.38
2019-05-17T18:32:03.705Z,39.40
2019-05-17T18:34:30.494Z,39.42
2019-05-17T18:36:57.337Z,39.47
2019-05-17T18:39:24.176Z,39.52
2019-05-17T18:41:51.014Z,39.57
2019-05-17T18:44:27.086Z,39.54
2019-05-17T18:46:44.800Z,39.53
2019-05-17T18:49:11.597Z,39.61
2019-05-17T18:51:38.494Z,39.51
2019-05-17T18:54:05.329Z,39.67
2019-05-17T18:56:32.273Z,39.68
2019-05-17T18:58:59.114Z,39.65
2019-05-17T19:01:26.065Z,39.59
2019-05-17T19:03:52.904Z,39.72
2019-05-17T19:06:19.741Z,39.65
2019-05-17T19:08:46.597Z,39.60
2019-05-17T19:11:13.430Z,39.69
2019-05-17T19:13:40.231Z,39.69
2019-05-17T19:16:07.105Z,39.72
2019-05-17T19:18:33.960Z,39.70
2019-05-17T19:21:00.815Z,39.76
2019-05-17T19:23:27.590Z,39.67
2019-05-17T19:28:21.314Z,39.87
2019-05-17T19:30:48.275Z,39.88
2019-05-17T19:33:15.098Z,39.86
2019-05-17T19:35:41.949Z,39.86
2019-05-17T19:38:09.464Z,39.88
2019-05-17T19:40:36.359Z,40.02
2019-05-17T19:43:03.162Z,40.00
2019-05-17T19:45:30.041Z,39.94
2019-05-17T19:47:56.828Z,40.00
2019-05-17T19:50:23.726Z,39.97
2019-05-17T19:52:50.678Z,39.96
2019-05-17T19:55:17.513Z,40.06
2019-05-17T19:57:44.353Z,40.13
2019-05-17T20:00:11.202Z,40.13
2019-05-17T20:02:38.046Z,40.07
2019-05-17T20:05:04.882Z,40.04
2019-05-17T20:07:37.589Z,40.13
2019-05-17T20:09:58.619Z,40.00
2019-05-17T20:12:25.458Z,40.10
2019-05-17T20:15:15.947Z,40.13
2019-05-17T20:17:39.256Z,40.18
2019-05-17T20:20:11.259Z,40.13
2019-05-17T20:22:38.126Z,40.07
2019-05-17T20:25:04.914Z,40.09
2019-05-17T20:27:31.719Z,40.08
2019-05-17T20:29:58.700Z,40.06
2019-05-17T20:32:25.585Z,40.01
2019-05-17T20:34:52.533Z,39.95
2019-05-17T20:37:19.332Z,39.90
2019-05-17T20:39:46.168Z,39.88
2019-05-17T20:42:12.989Z,39.87
2019-05-17T20:44:49.942Z,39.74
2019-05-17T20:47:26.875Z,39.74
2019-05-17T20:50:03.761Z,39.85
2019-05-17T20:52:35.203Z,39.79
2019-05-17T20:55:02.227Z,39.73
2019-05-17T20:57:28.986Z,39.81
2019-05-17T20:59:55.848Z,39.71
2019-05-17T21:02:22.646Z,39.69
2019-05-17T21:04:49.516Z,39.75
2019-05-17T21:07:16.356Z,39.74
2019-05-17T21:09:43.296Z,39.68
2019-05-17T21:12:10.139Z,39.60
2019-05-17T21:14:36.984Z,39.67
2019-05-17T21:17:03.752Z,39.57
2019-05-17T21:19:30.567Z,39.56
2019-05-17T21:21:57.409Z,39.48
2019-05-17T21:26:51.097Z,39.46
2019-05-17T21:29:18.041Z,39.62
2019-05-17T21:31:44.878Z,39.51
2019-05-17T21:34:11.721Z,39.57
2019-05-17T21:36:38.671Z,39.51
2019-05-17T21:39:05.447Z,39.63
2019-05-17T21:41:32.354Z,39.70
2019-05-17T21:43:59.201Z,39.48
2019-05-17T21:46:26.036Z,39.53
2019-05-17T21:48:52.989Z,39.57
2019-05-17T21:51:19.821Z,39.61
2019-05-17T21:53:46.672Z,39.54
2019-05-17T21:56:13.616Z,39.64
2019-05-17T21:58:40.459Z,39.53
2019-05-17T22:01:07.299Z,39.66
2019-05-17T22:03:34.244Z,39.65
2019-05-17T22:06:01.090Z,39.62
2019-05-17T22:08:27.837Z,39.58
2019-05-17T22:10:54.658Z,39.54
2019-05-17T22:13:21.619Z,39.53
2019-05-17T22:15:48.383Z,39.47
2019-05-17T22:18:18.469Z,39.48
2019-05-17T22:20:41.985Z,39.38
2019-05-17T22:23:08.875Z,39.38
2019-05-17T22:25:35.720Z,39.52
2019-05-17T22:28:02.664Z,39.43
2019-05-17T22:30:29.505Z,39.48
2019-05-17T22:32:56.341Z,39.32
2019-05-17T22:35:23.296Z,39.34
2019-05-17T22:37:50.133Z,39.38
2019-05-17T22:40:16.982Z,39.33
2019-05-17T22:42:43.849Z,39.35
2019-05-17T22:47:37.515Z,39.18
2019-05-17T22:50:04.355Z,39.13
2019-05-17T22:52:31.193Z,39.12
2019-05-17T22:54:59.644Z,39.08
2019-05-17T22:57:24.882Z,39.02
2019-05-17T22:59:51.667Z,39.02
2019-05-17T23:02:18.565Z,39.11
2019-05-17T23:04:47.919Z,39.10
2019-05-17T23:07:14.811Z,39.10
2019-05-17T23:09:41.653Z,38.97
2019-05-17T23:12:08.486Z,38.95
2019-05-17T23:14:35.141Z,38.97
2019-05-17T23:17:01.964Z,38.96
2019-05-17T23:19:28.757Z,38.96
2019-05-17T23:21:55.661Z,39.09
2019-05-17T23:24:22.489Z,38.98
2019-05-17T23:26:49.346Z,38.98
2019-05-17T23:29:16.186Z,39.05
2019-05-17T23:31:43.029Z,39.00
2019-05-17T23:34:09.875Z,38.96
2019-05-17T23:36:36.629Z,38.94
2019-05-17T23:39:03.556Z,38.90
2019-05-17T23:41:30.351Z,39.00
2019-05-17T23:43:57.243Z,39.00
2019-05-17T23:46:24.077Z,39.15
2019-05-17T23:48:51.334Z,38.97
2019-05-17T23:51:18.130Z,39.04
2019-05-17T23:53:45.012Z,39.01
2019-05-17T23:56:11.863Z,39.11
2019-05-17T23:58:38.699Z,39.14
